Time;durP1;ratioP1;P1;durP2;ratioP2;P2;SDS_P1;SDS_P2;PMS_P1;PMS_P2;Temp;Humidity;BMP_temperature;BMP_pressure;BME280_temperature;BME280_humidity;BME280_pressure;Samples;Min_cycle;Max_cycle;Signal;HPM_P1;HPM_P2
2021/04/24 00:01:33;;;;;;;14.85;6.90;;;;;;;4.18;100.00;93698.16;5131883;27;20058;-78
2021/04/24 00:04:00;;;;;;;12.18;6.03;;;;;;;4.16;100.00;93697.50;5132012;27;20089;-78
2021/04/24 00:06:28;;;;;;;17.15;7.45;;;;;;;4.21;100.00;93698.63;5132252;27;20042;-78
2021/04/24 00:08:55;;;;;;;12.85;5.88;;;;;;;4.10;100.00;93697.19;5132249;27;20044;-78
2021/04/24 00:11:23;;;;;;;14.23;5.85;;;;;;;4.06;100.00;93688.28;5131630;27;20051;-78
2021/04/24 00:13:50;;;;;;;9.95;5.32;;;;;;;3.86;100.00;93686.03;5131844;27;20454;-78
2021/04/24 00:16:17;;;;;;;13.85;6.88;;;;;;;3.76;100.00;93687.94;5131747;27;20055;-78
2021/04/24 00:18:44;;;;;;;11.98;5.47;;;;;;;3.78;100.00;93696.19;5131372;27;20520;-78
2021/04/24 00:21:11;;;;;;;12.93;6.07;;;;;;;3.87;100.00;93690.16;5131464;27;20054;-78
2021/04/24 00:23:37;;;;;;;12.15;5.18;;;;;;;3.74;100.00;93665.22;5131650;27;20067;-78
2021/04/24 00:26:04;;;;;;;10.98;5.05;;;;;;;3.80;100.00;93691.72;5131136;27;20039;-78
2021/04/24 00:28:30;;;;;;;11.75;4.82;;;;;;;3.74;100.00;93694.88;5131594;27;20418;-78
2021/04/24 00:30:56;;;;;;;;;;;;;;;3.60;100.00;93692.00;5131957;27;20439;-78
2021/04/24 00:33:24;;;;;;;15.32;6.72;;;;;;;3.51;100.00;93692.16;5131316;27;19930;-78
2021/04/24 00:35:51;;;;;;;17.52;7.65;;;;;;;3.51;100.00;93677.69;5131423;27;20054;-78
2021/04/24 00:38:18;;;;;;;23.35;10.45;;;;;;;3.27;100.00;93684.28;5131570;27;20043;-78
2021/04/24 00:40:45;;;;;;;21.63;9.50;;;;;;;3.31;100.00;93684.75;5131134;27;20418;-78
2021/04/24 00:43:13;;;;;;;20.08;9.60;;;;;;;3.33;100.00;93678.59;5131341;27;20047;-78
2021/04/24 00:45:39;;;;;;;20.45;8.38;;;;;;;3.38;100.00;93678.13;5131231;27;20047;-79
2021/04/24 00:48:06;;;;;;;;;;;;;;;3.29;100.00;93677.28;5131227;27;20054;-78
2021/04/24 00:50:34;;;;;;;13.50;8.15;;;;;;;3.30;100.00;93686.53;5130967;27;19920;-79
2021/04/24 00:53:02;;;;;;;19.85;8.55;;;;;;;3.26;100.00;93685.22;5131168;27;20039;-78
2021/04/24 00:55:29;;;;;;;21.17;10.35;;;;;;;3.02;100.00;93653.69;5131076;27;20065;-79
2021/04/24 00:57:56;;;;;;;29.33;10.13;;;;;;;3.23;100.00;93683.00;5130669;27;20050;-78
2021/04/24 01:00:24;;;;;;;18.00;8.88;;;;;;;3.28;100.00;93680.00;5130777;27;20494;-78
2021/04/24 01:02:51;;;;;;;21.95;10.50;;;;;;;3.13;100.00;93667.06;5130598;27;20047;-78
2021/04/24 01:05:20;;;;;;;23.05;10.07;;;;;;;3.14;100.00;93684.69;5130537;27;20107;-78
2021/04/24 01:07:46;;;;;;;21.27;9.32;;;;;;;3.11;100.00;93671.50;5130413;27;20051;-78
2021/04/24 01:10:14;;;;;;;16.83;9.18;;;;;;;3.15;100.00;93690.56;5130656;27;20486;-78
2021/04/24 01:12:41;;;;;;;16.13;8.23;;;;;;;2.92;100.00;93663.97;5130885;27;20383;-78
2021/04/24 01:15:09;;;;;;;17.40;9.82;;;;;;;3.02;100.00;93683.38;5130823;27;20047;-78
2021/04/24 01:17:36;;;;;;;27.13;9.93;;;;;;;3.01;100.00;93686.88;5130747;27;20054;-78
2021/04/24 01:20:04;;;;;;;;;;;;;;;2.97;100.00;93680.50;5130726;27;20051;-78
2021/04/24 01:22:31;;;;;;;26.48;9.40;;;;;;;2.83;100.00;93677.56;5130662;27;19930;-78
2021/04/24 01:24:58;;;;;;;23.75;10.52;;;;;;;2.83;100.00;93676.78;5130400;27;20072;-78
2021/04/24 01:27:25;;;;;;;20.33;10.60;;;;;;;2.93;100.00;93680.00;5130542;27;20100;-79
2021/04/24 01:29:51;;;;;;;17.27;9.57;;;;;;;2.75;100.00;93637.72;5130747;27;20050;-78
2021/04/24 01:32:18;;;;;;;18.52;8.75;;;;;;;3.04;100.00;93678.94;5130621;27;20053;-78
2021/04/24 01:34:44;;;;;;;19.65;8.45;;;;;;;3.00;100.00;93675.91;5130338;27;20485;-78
2021/04/24 01:37:10;;;;;;;;;;;;;;;3.01;100.00;93681.78;5130918;27;20512;-78
2021/04/24 01:39:37;;;;;;;20.17;9.45;;;;;;;2.82;100.00;93680.25;5130522;27;19931;-78
2021/04/24 01:42:04;;;;;;;17.55;8.32;;;;;;;2.76;100.00;93684.19;5130328;27;20051;-78
2021/04/24 01:44:31;;;;;;;15.50;9.50;;;;;;;2.69;100.00;93675.59;5130426;27;20043;-78
2021/04/24 01:46:57;;;;;;;;;;;;;;;2.76;100.00;93694.31;5130560;27;20057;-78
2021/04/24 01:49:23;;;;;;;19.50;8.80;;;;;;;2.72;100.00;93698.91;5129877;27;19930;-78
2021/04/24 01:51:50;;;;;;;18.48;8.27;;;;;;;2.69;100.00;93694.16;5130434;27;20054;-78
2021/04/24 01:54:16;;;;;;;14.23;7.85;;;;;;;2.61;100.00;93696.63;5130008;27;20047;-79
2021/04/24 01:56:46;;;;;;;17.88;7.45;;;;;;;2.51;100.00;93694.97;5130033;27;20054;-78
2021/04/24 01:59:13;;;;;;;13.63;5.95;;;;;;;2.39;100.00;93702.03;5129928;27;20133;-79
2021/04/24 02:01:39;;;;;;;38.92;11.98;;;;;;;2.13;100.00;93699.44;5129966;27;20490;-78
2021/04/24 02:04:05;;;;;;;;;;;;;;;2.24;100.00;93698.41;5130563;27;20066;-79
2021/04/24 02:06:32;;;;;;;9.73;4.93;;;;;;;2.33;100.00;93705.16;5129861;27;20374;-79
2021/04/24 02:08:58;;;;;;;;;;;;;;;2.61;100.00;93701.69;5130401;27;20054;-78
2021/04/24 02:11:24;;;;;;;8.27;4.13;;;;;;;2.40;100.00;93693.47;5129747;27;19919;-77
2021/04/24 02:13:51;;;;;;;10.65;4.20;;;;;;;2.31;100.00;93701.94;5130138;27;20043;-77
2021/04/24 02:16:18;;;;;;;9.82;5.43;;;;;;;2.19;100.00;93698.84;5130038;27;20077;-78
2021/04/24 02:18:44;;;;;;;8.88;4.35;;;;;;;2.17;100.00;93695.66;5133799;27;20559;-78
2021/04/24 02:21:11;;;;;;;6.65;4.25;;;;;;;2.07;100.00;93693.19;5134005;27;20050;-78
2021/04/24 02:23:39;;;;;;;8.27;4.68;;;;;;;2.00;100.00;93684.59;5133988;27;20050;-78
2021/04/24 02:26:07;;;;;;;8.27;4.78;;;;;;;2.12;100.00;93685.97;5133550;27;20047;-78
2021/04/24 02:28:34;;;;;;;17.95;4.60;;;;;;;2.29;100.00;93688.63;5133611;27;20058;-78
2021/04/24 02:31:02;;;;;;;15.38;5.30;;;;;;;2.35;100.00;93685.50;5133922;27;20494;-79
2021/04/24 02:33:28;;;;;;;7.38;3.17;;;;;;;2.29;100.00;93675.16;5133613;27;20043;-79
2021/04/24 02:35:56;;;;;;;11.75;4.50;;;;;;;2.29;100.00;93688.63;5133718;27;20059;-78
2021/04/24 02:38:24;;;;;;;4.93;2.90;;;;;;;2.25;100.00;93688.13;5133209;27;20054;-79
2021/04/24 02:40:51;;;;;;;6.25;3.47;;;;;;;2.21;100.00;93679.22;5133670;27;20047;-79
2021/04/24 02:43:18;;;;;;;6.78;3.25;;;;;;;2.29;100.00;93691.16;5133197;27;20051;-78
2021/04/24 02:45:46;;;;;;;4.43;2.72;;;;;;;2.35;100.00;93697.38;5133178;27;20058;-79
2021/04/24 02:48:13;;;;;;;4.43;2.17;;;;;;;2.33;100.00;93700.06;5133592;27;20464;-78
2021/04/24 02:50:40;;;;;;;8.10;2.78;;;;;;;2.27;100.00;93691.31;5133177;27;20039;-79
2021/04/24 02:53:06;;;;;;;3.55;2.17;;;;;;;2.20;100.00;93692.84;5133371;27;20047;-78
2021/04/24 02:55:33;;;;;;;;;;;;;;;2.14;100.00;93685.81;5133595;27;20433;-79
2021/04/24 02:57:59;;;;;;;4.63;2.95;;;;;;;2.10;100.00;93681.97;5133060;27;20386;-79
2021/04/24 03:00:26;;;;;;;9.50;3.10;;;;;;;2.00;100.00;93670.16;5133240;27;20091;-79
2021/04/24 03:03:00;;;;;;;5.45;3.63;;;;;;;2.09;100.00;93685.47;5133210;27;20042;-78
2021/04/24 03:05:27;;;;;;;9.65;3.05;;;;;;;2.07;100.00;93682.25;5133226;27;20077;-79
2021/04/24 03:08:17;;;;;;;5.57;4.03;;;;;;;1.84;100.00;93662.44;5132794;27;20099;-78
2021/04/24 03:10:44;;;;;;;3.90;2.75;;;;;;;2.10;100.00;93695.47;5129900;27;20047;-78
2021/04/24 03:13:16;;;;;;;10.82;4.25;;;;;;;2.04;100.00;93690.16;5130527;27;20047;-78
2021/04/24 03:15:45;;;;;;;4.28;2.22;;;;;;;2.08;100.00;93694.78;5132877;27;20047;-78
2021/04/24 03:18:12;;;;;;;4.35;2.33;;;;;;;2.10;100.00;93700.53;5133351;27;20051;-83
2021/04/24 03:20:39;;;;;;;6.38;3.88;;;;;;;2.07;100.00;93708.41;5132052;27;20047;-81
2021/04/24 03:23:07;;;;;;;7.00;2.80;;;;;;;2.08;100.00;93706.69;5131825;27;20051;-81
2021/04/24 03:25:42;;;;;;;4.95;2.50;;;;;;;2.04;100.00;93706.16;5132678;27;20043;-82
2021/04/24 03:28:08;;;;;;;4.28;2.15;;;;;;;2.05;100.00;93696.81;5131746;27;20049;-81
2021/04/24 03:30:35;;;;;;;;;;;;;;;2.06;100.00;93698.41;5133055;27;20079;-82
2021/04/24 03:33:01;;;;;;;6.22;2.45;;;;;;;2.00;100.00;93687.13;5132466;27;20377;-83
2021/04/24 03:35:27;;;;;;;10.82;5.97;;;;;;;1.92;100.00;93682.78;5132479;27;20051;-82
2021/04/24 03:37:54;;;;;;;;;;;;;;;2.04;100.00;93692.69;5132939;27;20043;-82
2021/04/24 03:40:24;;;;;;;5.93;3.20;;;;;;;1.90;100.00;93696.53;5132329;27;19919;-82
2021/04/24 03:42:50;;;;;;;6.00;4.78;;;;;;;1.99;100.00;93704.06;5132030;27;20046;-82
2021/04/24 03:45:21;;;;;;;;;;;;;;;2.02;100.00;93709.75;5132347;27;20402;-82
2021/04/24 03:47:48;;;;;;;4.75;2.92;;;;;;;2.04;100.00;93713.75;5132008;27;19934;-81
2021/04/24 03:50:15;;;;;;;10.65;4.10;;;;;;;2.03;100.00;93712.16;5132045;27;20047;-81
2021/04/24 03:52:59;;;;;;;9.18;3.90;;;;;;;2.03;100.00;93696.19;5131805;27;20050;-81
2021/04/24 03:56:21;;;;;;;5.32;3.45;;;;;;;1.97;100.00;93687.41;5133220;27;20486;-81
2021/04/24 03:58:47;;;;;;;6.43;3.13;;;;;;;2.11;100.00;93713.97;5120385;27;20050;-81
2021/04/24 04:01:14;;;;;;;;;;;;;;;2.27;100.00;93733.63;5133052;27;20413;-81
2021/04/24 04:03:41;;;;;;;3.65;2.28;;;;;;;2.26;100.00;93726.94;5131985;27;19923;-81
2021/04/24 04:06:07;;;;;;;6.07;2.55;;;;;;;2.30;100.00;93722.38;5131768;27;20043;-81
2021/04/24 04:08:34;;;;;;;;;;;;;;;2.35;100.00;93725.25;5132065;27;20387;-80
2021/04/24 04:11:03;;;;;;;8.65;4.05;;;;;;;2.34;100.00;93729.56;5125364;27;19928;-80
2021/04/24 04:13:30;;;;;;;9.32;3.53;;;;;;;2.13;100.00;93710.34;5122553;27;20433;-81
2021/04/24 04:15:56;;;;;;;4.97;2.95;;;;;;;2.30;100.00;93724.94;5124282;27;20063;-81
2021/04/24 04:18:22;;;;;;;;;;;;;;;2.40;100.00;93723.88;5113848;27;20047;-81
2021/04/24 04:20:51;;;;;;;18.20;4.72;;;;;;;2.35;100.00;93727.78;5122459;27;19923;-80
2021/04/24 04:23:18;;;;;;;7.53;4.70;;;;;;;2.41;100.00;93729.78;5112919;27;20039;-81
2021/04/24 04:25:46;;;;;;;15.57;8.68;;;;;;;2.30;100.00;93732.53;5138856;27;20047;-80
2021/04/24 04:28:13;;;;;;;13.85;6.80;;;;;;;2.13;100.00;93702.75;5135755;27;20394;-80
2021/04/24 04:30:41;;;;;;;13.50;6.05;;;;;;;2.27;100.00;93710.81;5131307;27;20456;-80
2021/04/24 04:33:08;;;;;;;10.32;6.20;;;;;;;2.49;100.00;93722.22;5110767;28;20048;-81
2021/04/24 04:35:37;;;;;;;8.98;3.90;;;;;;;2.33;100.00;93699.25;5110884;28;20105;-81
2021/04/24 04:38:04;;;;;;;12.13;6.35;;;;;;;2.64;100.00;93722.47;5110651;28;20414;-79
2021/04/24 04:40:31;;;;;;;12.73;5.25;;;;;;;2.71;100.00;93716.81;5130973;27;20401;-79
2021/04/24 04:42:58;;;;;;;12.13;7.28;;;;;;;2.94;100.00;93728.06;5130860;27;20051;-79
2021/04/24 04:45:25;;;;;;;10.20;5.45;;;;;;;3.02;100.00;93729.06;5121324;27;20052;-79
2021/04/24 04:47:51;;;;;;;7.90;4.20;;;;;;;3.09;100.00;93717.34;5110574;28;20043;-79
2021/04/24 04:50:19;;;;;;;;;;;;;;;3.14;100.00;93705.00;5110865;28;20043;-81
2021/04/24 04:52:45;;;;;;;8.70;3.83;;;;;;;2.93;100.00;93680.00;5110390;28;19923;-80
2021/04/24 04:55:13;;;;;;;11.07;4.03;;;;;;;3.25;100.00;93703.97;5110301;28;20055;-80
2021/04/24 04:57:39;;;;;;;8.38;4.00;;;;;;;3.29;100.00;93695.06;5134069;27;20054;-81
2021/04/24 05:00:09;;;;;;;10.75;5.05;;;;;;;3.41;100.00;93698.13;5151298;27;20054;-81
2021/04/24 05:03:15;;;;;;;11.07;4.97;;;;;;;3.18;100.00;93655.53;5151371;27;20053;-81
2021/04/24 05:05:41;;;;;;;11.23;5.75;;;;;;;3.64;100.00;93702.66;5147663;27;20050;-82
2021/04/24 05:08:08;;;;;;;12.35;5.65;;;;;;;3.71;100.00;93713.78;5151440;27;20080;-81
2021/04/24 05:10:34;;;;;;;;;;;;;;;3.77;100.00;93711.56;5152102;27;20408;-83
2021/04/24 05:13:00;;;;;;;10.80;6.35;;;;;;;3.71;100.00;93703.63;5150846;27;19919;-83
2021/04/24 05:15:27;;;;;;;;;;;;;;;3.80;100.00;93712.06;5151904;27;20103;-83
2021/04/24 05:17:53;;;;;;;15.10;5.05;;;;;;;3.77;100.00;93704.75;5142057;27;20255;-83
2021/04/24 05:20:20;;;;;;;;;;;;;;;3.98;100.00;93727.19;5130867;27;20460;-81
2021/04/24 05:22:50;;;;;;;16.73;5.78;;;;;;;3.98;100.00;93723.88;5130357;27;19919;-81
2021/04/24 05:25:17;;;;;;;11.20;6.65;;;;;;;4.10;100.00;93729.44;5130211;27;20490;-82
2021/04/24 05:27:45;;;;;;;13.80;6.82;;;;;;;4.27;100.00;93728.50;5130321;27;20051;-82
2021/04/24 05:30:14;;;;;;;23.35;8.43;;;;;;;4.30;100.00;93718.97;5126750;27;20046;-82
2021/04/24 05:32:42;;;;;;;25.13;10.55;;;;;;;4.41;100.00;93716.91;5128047;27;20046;-82
2021/04/24 05:35:13;;;;;;;19.67;9.05;;;;;;;4.57;100.00;93719.63;5129622;27;20513;-81
2021/04/24 05:37:39;;;;;;;17.30;9.63;;;;;;;4.75;100.00;93739.78;5130222;27;20043;-80
2021/04/24 05:40:07;;;;;;;14.38;9.07;;;;;;;4.93;100.00;93753.16;5129870;27;20096;-79
2021/04/24 05:42:34;;;;;;;18.13;8.18;;;;;;;5.10;100.00;93742.16;5130425;27;20413;-80
2021/04/24 05:45:09;;;;;;;17.50;8.52;;;;;;;5.02;99.40;93728.47;5130269;27;20042;-78
2021/04/24 05:47:36;;;;;;;18.25;7.47;;;;;;;5.32;98.26;93741.44;5130288;27;20071;-78
2021/04/24 05:50:03;;;;;;;;;;;;;;;5.64;100.00;93753.47;5130360;27;20055;-79
2021/04/24 05:52:29;;;;;;;18.77;8.38;;;;;;;5.76;99.59;93747.03;5133938;27;20285;-79
2021/04/24 05:54:57;;;;;;;;;;;;;;;5.85;96.70;93740.13;5134734;27;20054;-79
2021/04/24 05:57:23;;;;;;;21.48;9.52;;;;;;;5.68;95.48;93744.50;5133851;27;19923;-80
2021/04/24 05:59:49;;;;;;;;;;;;;;;5.77;92.76;93756.25;5134398;27;20063;-80
2021/04/24 06:02:16;;;;;;;17.40;5.90;;;;;;;6.04;92.57;93749.16;5134022;27;19930;-80
2021/04/24 06:04:42;;;;;;;16.50;8.13;;;;;;;6.23;94.90;93753.03;5133996;27;20554;-80
2021/04/24 06:07:09;;;;;;;;;;;;;;;6.34;92.18;93748.50;5134670;27;20047;-80
2021/04/24 06:09:36;;;;;;;16.88;9.57;;;;;;;6.53;91.21;93748.03;5134070;27;19920;-81
2021/04/24 06:12:02;;;;;;;;;;;;;;;6.86;93.32;93749.56;5134523;27;20419;-82
2021/04/24 06:14:28;;;;;;;17.05;6.88;;;;;;;7.11;92.82;93739.09;5133948;27;19923;-81
2021/04/24 06:16:56;;;;;;;;;;;;;;;7.47;89.42;93740.16;5134095;27;20058;-81
2021/04/24 06:19:22;;;;;;;20.10;7.53;;;;;;;7.36;87.52;93728.63;5133983;27;20300;-80
2021/04/24 06:21:49;;;;;;;15.00;6.97;;;;;;;7.70;89.14;93742.63;5134068;27;20039;-80
2021/04/24 06:24:16;;;;;;;;;;;;;;;7.97;87.39;93740.34;5134261;27;20047;-80
2021/04/24 06:26:42;;;;;;;20.38;7.15;;;;;;;7.99;84.04;93724.84;5133935;27;20335;-79
2021/04/24 06:29:10;;;;;;;;;;;;;;;8.14;82.29;93733.25;5134426;27;20047;-79
2021/04/24 06:31:37;;;;;;;16.17;5.82;;;;;;;8.19;82.06;93737.06;5133770;27;19923;-79
2021/04/24 06:34:05;;;;;;;27.52;9.40;;;;;;;8.26;82.33;93736.16;5133380;27;20051;-79
2021/04/24 06:36:32;;;;;;;14.98;6.90;;;;;;;8.59;84.49;93739.22;5133646;27;20087;-79
2021/04/24 06:38:58;;;;;;;18.55;5.63;;;;;;;8.86;84.30;93742.00;5133676;27;20055;-79
2021/04/24 06:41:26;;;;;;;10.73;4.72;;;;;;;9.12;78.39;93725.22;5133578;27;20056;-79
2021/04/24 06:43:58;;;;;;;23.60;6.22;;;;;;;9.21;80.26;93714.63;5133174;27;20051;-79
2021/04/24 06:46:25;;;;;;;13.82;6.57;;;;;;;8.95;78.10;93736.53;5133265;27;20047;-79
2021/04/24 06:48:51;;;;;;;;;;;;;;;9.05;79.04;93731.13;5133695;27;20043;-79
2021/04/24 06:51:17;;;;;;;7.60;5.32;;;;;;;9.25;80.09;93717.63;5132472;27;19919;-80
2021/04/24 06:53:45;;;;;;;;;;;;;;;9.40;77.79;93730.31;5133111;27;20055;-79
2021/04/24 06:56:11;;;;;;;6.95;3.10;;;;;;;9.46;73.48;93731.34;5131984;27;20010;-79
2021/04/24 06:58:39;;;;;;;;;;;;;;;9.68;75.28;93721.75;5133319;27;20047;-79
2021/04/24 07:01:13;;;;;;;7.45;3.75;;;;;;;9.92;74.87;93719.69;5132926;27;19923;-79
2021/04/24 07:03:41;;;;;;;10.25;4.47;;;;;;;10.26;74.70;93718.00;5132133;27;20507;-80
2021/04/24 07:06:09;;;;;;;11.60;4.93;;;;;;;10.38;72.94;93692.53;5133372;27;20418;-80
2021/04/24 07:08:37;;;;;;;11.35;3.83;;;;;;;10.42;71.12;93721.19;5132852;27;20048;-79
2021/04/24 07:11:03;;;;;;;8.52;2.63;;;;;;;10.67;66.49;93721.44;5133253;27;20482;-79
2021/04/24 07:13:29;;;;;;;;;;;;;;;10.88;66.85;93722.22;5134078;27;20058;-82
2021/04/24 07:16:02;;;;;;;21.55;3.92;;;;;;;10.92;69.33;93720.84;5133272;27;20391;-82
2021/04/24 07:18:28;;;;;;;12.48;4.05;;;;;;;10.99;67.64;93707.19;5133270;27;20054;-82
2021/04/24 07:20:57;;;;;;;6.88;2.22;;;;;;;11.11;64.10;93718.44;5133263;27;20494;-81
2021/04/24 07:23:24;;;;;;;9.48;2.20;;;;;;;11.22;64.74;93719.63;5132996;27;20047;-81
2021/04/24 07:25:51;;;;;;;25.30;7.82;;;;;;;11.22;66.06;93692.13;5133152;27;20145;-83
2021/04/24 07:28:17;;;;;;;7.38;2.55;;;;;;;11.34;61.18;93699.25;5133281;27;20047;-81
2021/04/24 07:31:02;;;;;;;10.60;2.60;;;;;;;11.42;60.93;93664.75;5132810;27;20452;-82
2021/04/24 07:33:28;;;;;;;8.95;2.83;;;;;;;11.72;62.13;93706.22;5132990;27;20054;-79
2021/04/24 07:35:55;;;;;;;5.10;2.70;;;;;;;11.40;58.56;93710.50;5132542;27;20075;-78
2021/04/24 07:38:22;;;;;;;4.75;2.80;;;;;;;11.52;61.58;93697.81;5132666;27;20050;-79
2021/04/24 07:40:50;;;;;;;5.00;2.95;;;;;;;11.78;58.44;93702.06;5132669;27;20055;-83
2021/04/24 07:43:16;;;;;;;5.70;2.17;;;;;;;11.66;56.02;93693.41;5132138;27;20043;-79
2021/04/24 07:45:45;;;;;;;6.55;2.42;;;;;;;12.01;57.17;93706.72;5132223;27;20182;-82
2021/04/24 07:48:20;;;;;;;12.52;3.88;;;;;;;12.40;58.10;93705.91;5132663;27;20505;-82
2021/04/24 07:50:50;;;;;;;4.60;2.40;;;;;;;12.45;49.20;93702.72;5131807;27;20043;-81
2021/04/24 07:53:16;;;;;;;5.00;2.70;;;;;;;12.35;48.72;93687.72;5131735;27;20043;-80
2021/04/24 07:55:51;;;;;;;;;;;;;;;12.42;53.80;93698.78;5132311;27;20047;-80
2021/04/24 07:58:18;;;;;;;9.60;2.13;;;;;;;12.60;52.39;93692.91;5132883;27;20255;-81
2021/04/24 08:00:45;;;;;;;5.20;2.42;;;;;;;12.09;43.73;93677.34;5132267;27;20102;-80
2021/04/24 08:03:12;;;;;;;3.95;2.05;;;;;;;11.93;43.13;93685.56;5131855;27;20047;-80
2021/04/24 08:05:51;;;;;;;3.50;1.38;;;;;;;11.23;42.91;93675.72;5133294;27;20049;-81
2021/04/24 08:08:17;;;;;;;3.20;1.88;;;;;;;11.20;41.92;93704.41;5146538;27;20111;-81
2021/04/24 08:10:44;;;;;;;;;;;;;;;10.98;44.01;93701.28;5131294;27;20047;-80
2021/04/24 08:13:10;;;;;;;6.03;1.83;;;;;;;11.08;44.54;93673.34;5137328;27;19930;-79
2021/04/24 08:15:36;;;;;;;;;;;;;;;11.41;46.07;93694.06;5152740;27;20043;-80
2021/04/24 08:18:02;;;;;;;4.90;1.98;;;;;;;11.19;41.29;93674.53;5140489;27;19929;-80
2021/04/24 08:20:30;;;;;;;9.43;3.03;;;;;;;11.27;42.75;93685.59;5122456;27;20058;-80
2021/04/24 08:22:56;;;;;;;3.58;1.67;;;;;;;11.07;38.76;93681.28;5115741;27;20403;-80
2021/04/24 08:25:23;;;;;;;4.63;1.65;;;;;;;10.55;40.98;93676.75;5125967;27;20058;-79
2021/04/24 08:27:49;;;;;;;5.80;2.63;;;;;;;10.60;43.63;93666.69;5131307;27;20043;-79
2021/04/24 08:30:16;;;;;;;3.78;1.80;;;;;;;10.52;42.71;93661.75;5131028;27;20104;-80
2021/04/24 08:32:44;;;;;;;2.97;1.27;;;;;;;10.34;42.60;93663.13;5131472;27;20055;-79
2021/04/24 08:35:12;;;;;;;5.07;1.50;;;;;;;10.36;42.67;93660.31;5132417;27;20062;-79
2021/04/24 08:37:41;;;;;;;4.95;1.58;;;;;;;10.44;45.00;93647.34;5134628;27;20055;-79
2021/04/24 08:40:10;;;;;;;4.00;1.45;;;;;;;10.28;45.71;93651.06;5135481;27;20067;-79
2021/04/24 08:42:36;;;;;;;6.05;1.45;;;;;;;10.10;43.35;93654.97;5142091;27;20039;-80
2021/04/24 08:45:13;;;;;;;2.55;1.30;;;;;;;10.36;44.14;93650.84;5136587;27;20050;-80
2021/04/24 08:47:43;;;;;;;3.35;1.15;;;;;;;10.65;43.89;93637.84;5130887;27;20050;-80
2021/04/24 08:50:12;;;;;;;4.28;1.73;;;;;;;10.52;42.21;93642.00;5131146;27;20047;-80
2021/04/24 08:52:41;;;;;;;5.00;1.30;;;;;;;10.49;42.58;93637.25;5130721;27;20047;-79
2021/04/24 08:55:10;;;;;;;2.65;1.45;;;;;;;10.22;43.35;93641.56;5130919;27;20092;-81
2021/04/24 08:57:37;;;;;;;2.05;1.35;;;;;;;10.34;40.87;93634.88;5130739;27;20055;-79
2021/04/24 09:00:07;;;;;;;4.10;1.77;;;;;;;10.47;41.01;93635.88;5130713;27;20061;-80
2021/04/24 09:02:34;;;;;;;4.35;1.65;;;;;;;10.72;44.28;93630.13;5130856;27;20149;-80
2021/04/24 09:05:00;;;;;;;2.67;1.30;;;;;;;10.65;41.79;93620.66;5130872;27;20051;-80
2021/04/24 09:07:27;;;;;;;3.70;2.70;;;;;;;10.81;42.80;93619.44;5130588;27;20432;-80
2021/04/24 09:10:03;;;;;;;;;;;;;;;10.80;42.21;93624.78;5131138;27;20402;-81
2021/04/24 09:12:37;;;;;;;3.53;1.23;;;;;;;10.64;42.77;93620.88;5131168;27;20002;-81
2021/04/24 09:15:19;;;;;;;4.50;1.20;;;;;;;10.96;43.20;93603.78;5130762;27;20047;-80
2021/04/24 09:17:50;;;;;;;8.70;1.42;;;;;;;11.19;41.47;93607.69;5129970;27;20054;-80
2021/04/24 09:20:18;;;;;;;1.58;0.70;;;;;;;11.01;41.51;93599.84;5130290;27;20158;-80
2021/04/24 09:22:54;;;;;;;3.83;1.92;;;;;;;11.19;41.42;93586.31;5130381;27;20073;-80
2021/04/24 09:25:29;;;;;;;4.18;1.98;;;;;;;11.39;40.73;93601.66;5129722;27;20490;-79
2021/04/24 09:27:55;;;;;;;5.17;1.90;;;;;;;11.35;39.05;93598.72;5130522;27;20043;-80
2021/04/24 09:30:22;;;;;;;;;;;;;;;11.21;42.09;93592.06;5130928;27;20098;-80
2021/04/24 09:32:49;;;;;;;8.77;3.28;;;;;;;11.15;41.88;93582.59;5130248;27;19927;-80
2021/04/24 09:35:20;;;;;;;6.22;2.42;;;;;;;11.36;42.10;93586.66;5129608;27;20055;-79
2021/04/24 09:37:55;;;;;;;4.78;2.25;;;;;;;11.27;41.86;93583.53;5129938;27;20054;-80
2021/04/24 09:40:23;;;;;;;5.15;1.85;;;;;;;11.34;43.02;93581.69;5130396;27;20047;-80
2021/04/24 09:42:49;;;;;;;3.17;1.13;;;;;;;11.12;38.70;93583.78;5129972;27;20058;-81
2021/04/24 09:45:25;;;;;;;;;;;;;;;10.97;39.76;93573.72;5130604;27;20058;-80
2021/04/24 09:47:53;;;;;;;4.22;1.45;;;;;;;10.58;40.31;93567.69;5129918;27;20274;-80
2021/04/24 09:50:22;;;;;;;8.77;1.67;;;;;;;10.88;40.08;93573.16;5129986;27;20047;-79
2021/04/24 09:52:49;;;;;;;4.70;1.90;;;;;;;10.79;41.38;93561.53;5130246;27;20410;-80
2021/04/24 09:55:34;;;;;;;3.08;1.77;;;;;;;10.80;39.63;93561.31;5129587;27;20086;-79
2021/04/24 09:58:01;;;;;;;8.95;3.25;;;;;;;10.79;40.34;93564.09;5130291;27;20107;-79
2021/04/24 10:00:29;;;;;;;5.60;2.55;;;;;;;10.95;40.91;93565.44;5130019;27;20047;-79
2021/04/24 10:02:55;;;;;;;6.97;3.20;;;;;;;10.68;40.27;93539.81;5129886;27;20047;-78
2021/04/24 10:05:24;;;;;;;5.93;2.85;;;;;;;10.96;42.81;93556.72;5129617;27;20647;-78
2021/04/24 10:07:51;;;;;;;6.38;2.85;;;;;;;11.00;38.61;93547.63;5129806;27;20550;-77
2021/04/24 10:10:26;;;;;;;10.23;3.53;;;;;;;11.06;40.58;93553.75;5130058;27;20394;-77
2021/04/24 10:12:57;;;;;;;6.35;3.20;;;;;;;11.21;41.91;93543.97;5130075;27;20051;-79
2021/04/24 10:15:35;;;;;;;4.63;1.80;;;;;;;11.13;38.59;93538.28;5129414;27;20074;-77
2021/04/24 10:18:03;;;;;;;2.58;1.40;;;;;;;10.79;39.44;93523.00;5129548;27;20051;-79
2021/04/24 10:20:32;;;;;;;5.65;1.65;;;;;;;11.12;37.49;93534.13;5129953;27;20043;-80
2021/04/24 10:22:59;;;;;;;6.80;1.83;;;;;;;11.09;40.69;93528.41;5129797;27;20050;-80
2021/04/24 10:25:27;;;;;;;6.65;1.50;;;;;;;11.34;40.38;93524.34;5129635;27;20047;-79
2021/04/24 10:27:55;;;;;;;2.67;1.50;;;;;;;11.34;39.95;93527.69;5129497;27;20047;-79
2021/04/24 10:30:23;;;;;;;3.00;1.50;;;;;;;11.55;42.27;93532.72;5129636;27;20099;-79
2021/04/24 10:32:50;;;;;;;4.45;2.00;;;;;;;11.67;40.79;93538.78;5129599;27;20047;-79
2021/04/24 10:35:17;;;;;;;2.70;1.48;;;;;;;11.78;41.09;93539.91;5129834;27;20063;-80
2021/04/24 10:37:45;;;;;;;;;;;;;;;11.98;38.78;93534.63;5130569;27;20059;-79
2021/04/24 10:40:12;;;;;;;7.82;1.70;;;;;;;12.06;41.79;93523.28;5133676;27;19964;-79
2021/04/24 10:42:39;;;;;;;5.18;2.33;;;;;;;12.29;40.71;93516.75;5133554;27;20062;-79
2021/04/24 10:45:07;;;;;;;4.18;1.58;;;;;;;12.28;39.56;93525.50;5133269;27;20047;-80
2021/04/24 10:47:52;;;;;;;5.88;3.38;;;;;;;12.03;39.59;93526.25;5127478;27;20345;-79
2021/04/24 10:50:22;;;;;;;6.25;2.88;;;;;;;12.33;39.87;93532.56;5133538;27;20126;-80
2021/04/24 10:52:51;;;;;;;3.13;1.77;;;;;;;12.69;41.30;93549.88;5133143;27;20502;-79
2021/04/24 10:55:23;;;;;;;6.72;2.35;;;;;;;12.92;40.07;93551.00;5133264;27;20043;-79
2021/04/24 10:57:51;;;;;;;2.95;1.48;;;;;;;13.19;39.44;93547.38;5132882;27;20490;-80
2021/04/24 11:00:20;;;;;;;5.97;2.00;;;;;;;13.46;38.37;93552.16;5132876;27;20047;-80
2021/04/24 11:02:49;;;;;;;3.28;1.35;;;;;;;12.96;36.85;93544.44;5132901;27;20046;-80
2021/04/24 11:05:26;;;;;;;4.97;1.70;;;;;;;13.26;37.44;93566.13;5133129;27;20047;-80
2021/04/24 11:08:26;;;;;;;3.17;1.20;;;;;;;13.32;38.59;93560.09;5132493;27;20074;-80
2021/04/24 11:11:01;;;;;;;3.05;1.75;;;;;;;13.42;36.80;93544.06;5069753;28;20049;-80
2021/04/24 11:13:33;;;;;;;4.77;1.57;;;;;;;13.46;37.95;93544.41;5069537;28;20044;-81
2021/04/24 11:16:02;;;;;;;3.72;1.88;;;;;;;13.72;34.71;93563.19;5102704;27;20831;-79
2021/04/24 11:21:42;;;;;;;2.15;1.13;;;;;;;13.63;36.76;93531.72;5131917;27;20107;-80
2021/04/24 11:24:16;;;;;;;8.27;2.30;;;;;;;13.93;35.38;93554.13;5131351;27;20047;-79
2021/04/24 11:26:51;;;;;;;4.93;2.25;;;;;;;13.68;36.63;93554.28;5133110;27;20053;-79
2021/04/24 11:29:37;;;;;;;3.65;1.27;;;;;;;13.68;36.77;93531.06;5133299;27;20043;-79
2021/04/24 11:32:10;;;;;;;2.22;1.15;;;;;;;13.56;34.83;93551.69;5132608;27;20050;-79
2021/04/24 11:34:42;;;;;;;5.10;2.10;;;;;;;13.40;35.91;93545.28;5132089;27;20492;-78
2021/04/24 11:37:31;;;;;;;7.30;1.67;;;;;;;13.56;34.88;93554.28;5131841;27;20054;-81
2021/04/24 11:40:27;;;;;;;2.72;1.30;;;;;;;13.42;35.09;93502.78;5131387;27;20051;-80
2021/04/24 11:42:59;;;;;;;4.55;2.20;;;;;;;13.76;36.06;93497.19;5132028;27;20047;-79
2021/04/24 11:46:19;;;;;;;2.65;1.67;;;;;;;14.56;37.20;93551.16;5131176;27;20047;-80
2021/04/24 11:49:05;;;;;;;4.68;1.52;;;;;;;14.09;32.50;93446.00;5132913;27;20387;-80
2021/04/24 11:51:34;;;;;;;3.95;1.33;;;;;;;14.87;31.56;93541.50;5132714;27;20096;-80